Terminal Aerodrome Forecast
Issued by NWS

Home | Current Version | Previous Version | Text Only | Print | Product List | Glossary Off
Versions: 1 2 3 4 5 6 7 8 9 10 11 12 13 14 15 16 17 18 19 20 21 22 23 24 25

596
FTUS43 KABR 211657 AAB
TAFMBG
TAF AMD
KMBG 211657Z 2117/2212 30005KT 6SM BR OVC010
      TEMPO 2117/2119 2SM BR BKN007
     FM212200 31007KT P6SM OVC015
     FM220600 31007KT P6SM BKN008=

USA.gov is the U.S. government's official web portal to all federal, state and local government web resources and services.